sensor_id;sensor_type;location;lat;lon;timestamp;P1;durP1;ratioP1;P2;durP2;ratioP2
72115;SDS011;59991;52.140;5.428;2023-03-13T00:00:23;24.08;;;5.68;;
72115;SDS011;59991;52.140;5.428;2023-03-13T00:00:55;23.10;;;5.90;;
72115;SDS011;59991;52.140;5.428;2023-03-13T00:01:30;18.50;;;4.93;;
72115;SDS011;59991;52.140;5.428;2023-03-13T00:02:04;22.33;;;5.53;;
72115;SDS011;59991;52.140;5.428;2023-03-13T00:02:36;27.52;;;6.53;;
72115;SDS011;59991;52.140;5.428;2023-03-13T00:03:07;20.65;;;5.95;;
72115;SDS011;59991;52.140;5.428;2023-03-13T00:03:39;17.07;;;5.40;;
72115;SDS011;59991;52.140;5.428;2023-03-13T00:04:10;22.58;;;6.28;;
72115;SDS011;59991;52.140;5.428;2023-03-13T00:04:42;20.95;;;6.13;;
72115;SDS011;59991;52.140;5.428;2023-03-13T00:05:13;20.25;;;5.85;;
72115;SDS011;59991;52.140;5.428;2023-03-13T00:05:45;23.20;;;6.50;;
72115;SDS011;59991;52.140;5.428;2023-03-13T00:06:16;19.38;;;4.88;;
72115;SDS011;59991;52.140;5.428;2023-03-13T00:06:48;19.83;;;4.72;;
72115;SDS011;59991;52.140;5.428;2023-03-13T00:07:20;20.98;;;6.20;;
72115;SDS011;59991;52.140;5.428;2023-03-13T00:07:51;23.90;;;5.68;;
72115;SDS011;59991;52.140;5.428;2023-03-13T00:08:23;18.17;;;5.65;;
72115;SDS011;59991;52.140;5.428;2023-03-13T00:08:55;22.03;;;6.73;;
72115;SDS011;59991;52.140;5.428;2023-03-13T00:09:27;25.02;;;4.82;;
72115;SDS011;59991;52.140;5.428;2023-03-13T00:09:58;21.63;;;4.75;;
72115;SDS011;59991;52.140;5.428;2023-03-13T00:10:30;21.42;;;5.85;;
72115;SDS011;59991;52.140;5.428;2023-03-13T00:11:09;27.73;;;5.22;;
72115;SDS011;59991;52.140;5.428;2023-03-13T00:11:42;22.85;;;5.25;;
72115;SDS011;59991;52.140;5.428;2023-03-13T00:12:14;22.70;;;5.82;;
72115;SDS011;59991;52.140;5.428;2023-03-13T00:12:45;28.50;;;7.60;;
72115;SDS011;59991;52.140;5.428;2023-03-13T00:13:17;19.73;;;5.28;;
72115;SDS011;59991;52.140;5.428;2023-03-13T00:13:52;24.27;;;5.30;;
72115;SDS011;59991;52.140;5.428;2023-03-13T00:14:24;23.67;;;4.80;;
72115;SDS011;59991;52.140;5.428;2023-03-13T00:14:56;22.90;;;4.88;;
72115;SDS011;59991;52.140;5.428;2023-03-13T00:15:27;20.23;;;4.95;;
72115;SDS011;59991;52.140;5.428;2023-03-13T00:16:02;18.20;;;5.75;;
72115;SDS011;59991;52.140;5.428;2023-03-13T00:16:36;19.45;;;4.50;;
72115;SDS011;59991;52.140;5.428;2023-03-13T00:17:09;20.95;;;4.93;;
72115;SDS011;59991;52.140;5.428;2023-03-13T00:17:41;25.55;;;5.18;;
72115;SDS011;59991;52.140;5.428;2023-03-13T00:18:12;23.05;;;5.65;;
72115;SDS011;59991;52.140;5.428;2023-03-13T00:18:47;28.17;;;4.72;;
72115;SDS011;59991;52.140;5.428;2023-03-13T00:19:20;21.95;;;5.15;;
72115;SDS011;59991;52.140;5.428;2023-03-13T00:19:51;21.57;;;4.50;;
72115;SDS011;59991;52.140;5.428;2023-03-13T00:20:23;18.48;;;4.95;;
72115;SDS011;59991;52.140;5.428;2023-03-13T00:20:58;15.20;;;3.67;;
72115;SDS011;59991;52.140;5.428;2023-03-13T00:21:33;24.38;;;6.38;;
72115;SDS011;59991;52.140;5.428;2023-03-13T00:22:05;20.98;;;5.72;;
72115;SDS011;59991;52.140;5.428;2023-03-13T00:22:36;23.27;;;5.50;;
72115;SDS011;59991;52.140;5.428;2023-03-13T00:23:08;20.42;;;5.32;;
72115;SDS011;59991;52.140;5.428;2023-03-13T00:23:39;18.30;;;4.68;;
72115;SDS011;59991;52.140;5.428;2023-03-13T00:24:11;20.73;;;5.28;;
72115;SDS011;59991;52.140;5.428;2023-03-13T00:24:44;27.45;;;4.65;;
72115;SDS011;59991;52.140;5.428;2023-03-13T00:25:16;21.80;;;5.70;;
72115;SDS011;59991;52.140;5.428;2023-03-13T00:25:47;19.55;;;3.85;;
72115;SDS011;59991;52.140;5.428;2023-03-13T00:26:20;30.65;;;4.93;;
72115;SDS011;59991;52.140;5.428;2023-03-13T00:26:53;21.40;;;5.07;;
72115;SDS011;59991;52.140;5.428;2023-03-13T00:27:25;24.08;;;4.68;;
72115;SDS011;59991;52.140;5.428;2023-03-13T00:27:57;18.73;;;5.00;;
72115;SDS011;59991;52.140;5.428;2023-03-13T00:28:29;18.17;;;5.32;;
72115;SDS011;59991;52.140;5.428;2023-03-13T00:29:03;19.02;;;4.40;;
72115;SDS011;59991;52.140;5.428;2023-03-13T00:29:34;18.65;;;4.70;;
72115;SDS011;59991;52.140;5.428;2023-03-13T00:30:06;26.23;;;4.80;;
72115;SDS011;59991;52.140;5.428;2023-03-13T00:30:38;21.60;;;4.60;;
72115;SDS011;59991;52.140;5.428;2023-03-13T00:31:10;21.17;;;4.85;;
72115;SDS011;59991;52.140;5.428;2023-03-13T00:31:44;18.02;;;4.57;;
72115;SDS011;59991;52.140;5.428;2023-03-13T00:32:15;19.05;;;4.75;;
72115;SDS011;59991;52.140;5.428;2023-03-13T00:32:46;21.67;;;5.63;;
72115;SDS011;59991;52.140;5.428;2023-03-13T00:33:18;16.85;;;3.83;;
72115;SDS011;59991;52.140;5.428;2023-03-13T00:33:51;21.55;;;5.50;;
72115;SDS011;59991;52.140;5.428;2023-03-13T00:34:24;21.75;;;5.20;;
72115;SDS011;59991;52.140;5.428;2023-03-13T00:34:57;22.42;;;6.05;;
72115;SDS011;59991;52.140;5.428;2023-03-13T00:35:28;19.15;;;5.50;;
72115;SDS011;59991;52.140;5.428;2023-03-13T00:36:01;19.33;;;4.70;;
72115;SDS011;59991;52.140;5.428;2023-03-13T00:36:34;24.33;;;4.32;;
72115;SDS011;59991;52.140;5.428;2023-03-13T00:37:06;23.85;;;4.97;;
72115;SDS011;59991;52.140;5.428;2023-03-13T00:37:37;20.67;;;4.57;;
72115;SDS011;59991;52.140;5.428;2023-03-13T00:38:09;21.65;;;4.97;;
72115;SDS011;59991;52.140;5.428;2023-03-13T00:38:41;19.50;;;4.60;;
72115;SDS011;59991;52.140;5.428;2023-03-13T00:39:13;22.50;;;6.15;;
72115;SDS011;59991;52.140;5.428;2023-03-13T00:39:44;22.75;;;5.07;;
72115;SDS011;59991;52.140;5.428;2023-03-13T00:40:15;22.33;;;4.35;;
72115;SDS011;59991;52.140;5.428;2023-03-13T00:40:47;20.15;;;4.60;;
72115;SDS011;59991;52.140;5.428;2023-03-13T00:41:19;21.20;;;5.00;;
72115;SDS011;59991;52.140;5.428;2023-03-13T00:41:52;25.60;;;4.85;;
72115;SDS011;59991;52.140;5.428;2023-03-13T00:42:24;19.38;;;4.82;;
72115;SDS011;59991;52.140;5.428;2023-03-13T00:42:55;21.17;;;5.07;;
72115;SDS011;59991;52.140;5.428;2023-03-13T00:43:27;17.50;;;4.60;;
72115;SDS011;59991;52.140;5.428;2023-03-13T00:43:58;21.17;;;4.68;;
72115;SDS011;59991;52.140;5.428;2023-03-13T00:44:30;21.15;;;5.28;;
72115;SDS011;59991;52.140;5.428;2023-03-13T00:45:02;18.08;;;4.47;;
72115;SDS011;59991;52.140;5.428;2023-03-13T00:45:34;24.15;;;4.68;;
72115;SDS011;59991;52.140;5.428;2023-03-13T00:46:05;24.20;;;4.20;;
72115;SDS011;59991;52.140;5.428;2023-03-13T00:46:37;19.97;;;5.57;;
72115;SDS011;59991;52.140;5.428;2023-03-13T00:47:09;22.10;;;4.53;;
72115;SDS011;59991;52.140;5.428;2023-03-13T00:47:40;21.63;;;4.78;;
72115;SDS011;59991;52.140;5.428;2023-03-13T00:48:12;22.83;;;4.88;;
72115;SDS011;59991;52.140;5.428;2023-03-13T00:48:43;28.48;;;6.03;;
72115;SDS011;59991;52.140;5.428;2023-03-13T00:49:14;25.02;;;6.00;;
72115;SDS011;59991;52.140;5.428;2023-03-13T00:49:46;28.60;;;6.65;;
72115;SDS011;59991;52.140;5.428;2023-03-13T00:50:17;27.40;;;5.07;;
72115;SDS011;59991;52.140;5.428;2023-03-13T00:50:49;18.15;;;4.60;;
72115;SDS011;59991;52.140;5.428;2023-03-13T00:51:21;18.00;;;4.93;;
72115;SDS011;59991;52.140;5.428;2023-03-13T00:51:57;23.67;;;5.20;;
72115;SDS011;59991;52.140;5.428;2023-03-13T00:52:29;21.90;;;5.57;;
72115;SDS011;59991;52.140;5.428;2023-03-13T00:53:00;19.13;;;5.53;;
72115;SDS011;59991;52.140;5.428;2023-03-13T00:53:32;18.17;;;5.03;;
72115;SDS011;59991;52.140;5.428;2023-03-13T00:54:04;20.35;;;5.20;;
72115;SDS011;59991;52.140;5.428;2023-03-13T00:54:35;23.63;;;4.40;;
72115;SDS011;59991;52.140;5.428;2023-03-13T00:55:07;18.70;;;4.85;;
72115;SDS011;59991;52.140;5.428;2023-03-13T00:55:39;18.15;;;4.63;;
72115;SDS011;59991;52.140;5.428;2023-03-13T00:56:28;18.00;;;4.93;;
72115;SDS011;59991;52.140;5.428;2023-03-13T00:56:59;23.08;;;5.15;;
72115;SDS011;59991;52.140;5.428;2023-03-13T00:57:31;22.07;;;4.87;;
72115;SDS011;59991;52.140;5.428;2023-03-13T00:58:02;20.83;;;5.18;;
72115;SDS011;59991;52.140;5.428;2023-03-13T00:58:34;24.83;;;5.25;;
72115;SDS011;59991;52.140;5.428;2023-03-13T00:59:08;22.83;;;4.53;;
72115;SDS011;59991;52.140;5.428;2023-03-13T00:59:39;12.93;;;4.30;;
72115;SDS011;59991;52.140;5.428;2023-03-13T01:00:11;16.52;;;4.68;;
72115;SDS011;59991;52.140;5.428;2023-03-13T01:00:43;17.70;;;5.25;;
72115;SDS011;59991;52.140;5.428;2023-03-13T01:02:15;17.58;;;5.22;;
72115;SDS011;59991;52.140;5.428;2023-03-13T01:02:46;19.90;;;5.00;;
72115;SDS011;59991;52.140;5.428;2023-03-13T01:03:18;17.23;;;4.60;;
72115;SDS011;59991;52.140;5.428;2023-03-13T01:03:52;19.77;;;5.75;;
72115;SDS011;59991;52.140;5.428;2023-03-13T01:04:25;17.85;;;4.45;;
72115;SDS011;59991;52.140;5.428;2023-03-13T01:04:56;19.65;;;5.07;;
72115;SDS011;59991;52.140;5.428;2023-03-13T01:05:30;19.10;;;4.78;;
72115;SDS011;59991;52.140;5.428;2023-03-13T01:06:02;24.55;;;5.25;;
72115;SDS011;59991;52.140;5.428;2023-03-13T01:06:35;23.75;;;5.82;;
72115;SDS011;59991;52.140;5.428;2023-03-13T01:07:08;20.30;;;5.57;;
72115;SDS011;59991;52.140;5.428;2023-03-13T01:07:39;20.75;;;5.13;;
72115;SDS011;59991;52.140;5.428;2023-03-13T01:08:10;20.55;;;4.72;;
72115;SDS011;59991;52.140;5.428;2023-03-13T01:08:42;17.70;;;4.57;;
72115;SDS011;59991;52.140;5.428;2023-03-13T01:09:14;16.45;;;4.50;;
72115;SDS011;59991;52.140;5.428;2023-03-13T01:09:46;19.58;;;5.05;;
72115;SDS011;59991;52.140;5.428;2023-03-13T01:10:18;12.75;;;4.60;;
72115;SDS011;59991;52.140;5.428;2023-03-13T01:10:49;19.45;;;4.88;;
72115;SDS011;59991;52.140;5.428;2023-03-13T01:11:22;15.77;;;4.65;;
72115;SDS011;59991;52.140;5.428;2023-03-13T01:11:55;22.52;;;5.55;;
72115;SDS011;59991;52.140;5.428;2023-03-13T01:12:26;22.35;;;6.20;;
72115;SDS011;59991;52.140;5.428;2023-03-13T01:12:58;19.67;;;6.75;;
72115;SDS011;59991;52.140;5.428;2023-03-13T01:13:29;18.00;;;4.38;;
72115;SDS011;59991;52.140;5.428;2023-03-13T01:14:04;21.63;;;4.77;;
72115;SDS011;59991;52.140;5.428;2023-03-13T01:14:37;22.48;;;5.68;;
72115;SDS011;59991;52.140;5.428;2023-03-13T01:15:09;21.40;;;5.28;;
72115;SDS011;59991;52.140;5.428;2023-03-13T01:15:41;22.00;;;5.72;;
72115;SDS011;59991;52.140;5.428;2023-03-13T01:16:13;20.60;;;5.03;;
72115;SDS011;59991;52.140;5.428;2023-03-13T01:16:49;17.23;;;4.75;;
72115;SDS011;59991;52.140;5.428;2023-03-13T01:17:21;20.80;;;5.47;;
72115;SDS011;59991;52.140;5.428;2023-03-13T01:17:52;20.80;;;5.85;;
72115;SDS011;59991;52.140;5.428;2023-03-13T01:18:24;20.38;;;5.57;;
72115;SDS011;59991;52.140;5.428;2023-03-13T01:18:56;20.00;;;5.60;;
72115;SDS011;59991;52.140;5.428;2023-03-13T01:19:30;24.37;;;4.70;;
72115;SDS011;59991;52.140;5.428;2023-03-13T01:20:01;17.30;;;4.93;;
72115;SDS011;59991;52.140;5.428;2023-03-13T01:20:33;16.35;;;4.80;;
72115;SDS011;59991;52.140;5.428;2023-03-13T01:21:05;16.23;;;6.15;;
72115;SDS011;59991;52.140;5.428;2023-03-13T01:21:37;22.38;;;4.97;;
72115;SDS011;59991;52.140;5.428;2023-03-13T01:22:08;24.98;;;5.20;;
72115;SDS011;59991;52.140;5.428;2023-03-13T01:22:42;15.23;;;4.50;;
72115;SDS011;59991;52.140;5.428;2023-03-13T01:23:14;14.18;;;5.70;;
72115;SDS011;59991;52.140;5.428;2023-03-13T01:23:46;19.88;;;5.50;;
72115;SDS011;59991;52.140;5.428;2023-03-13T01:24:18;15.80;;;4.03;;
72115;SDS011;59991;52.140;5.428;2023-03-13T01:24:50;12.80;;;3.87;;
72115;SDS011;59991;52.140;5.428;2023-03-13T01:25:22;15.05;;;4.85;;
72115;SDS011;59991;52.140;5.428;2023-03-13T01:25:54;18.48;;;4.60;;
72115;SDS011;59991;52.140;5.428;2023-03-13T01:26:26;18.25;;;5.15;;
72115;SDS011;59991;52.140;5.428;2023-03-13T01:26:58;21.70;;;5.10;;
72115;SDS011;59991;52.140;5.428;2023-03-13T01:27:29;22.95;;;4.78;;
72115;SDS011;59991;52.140;5.428;2023-03-13T01:28:01;18.30;;;4.47;;
72115;SDS011;59991;52.140;5.428;2023-03-13T01:28:33;22.45;;;5.60;;
72115;SDS011;59991;52.140;5.428;2023-03-13T01:29:06;17.85;;;4.53;;
72115;SDS011;59991;52.140;5.428;2023-03-13T01:29:37;18.02;;;4.75;;
72115;SDS011;59991;52.140;5.428;2023-03-13T01:30:09;15.13;;;4.63;;
72115;SDS011;59991;52.140;5.428;2023-03-13T01:30:41;14.60;;;4.50;;
72115;SDS011;59991;52.140;5.428;2023-03-13T01:31:13;14.80;;;3.90;;
72115;SDS011;59991;52.140;5.428;2023-03-13T01:31:48;16.48;;;4.95;;
72115;SDS011;59991;52.140;5.428;2023-03-13T01:32:20;13.73;;;4.20;;
72115;SDS011;59991;52.140;5.428;2023-03-13T01:32:51;11.95;;;4.45;;
72115;SDS011;59991;52.140;5.428;2023-03-13T01:33:23;17.23;;;4.30;;
72115;SDS011;59991;52.140;5.428;2023-03-13T01:33:55;16.65;;;4.53;;
72115;SDS011;59991;52.140;5.428;2023-03-13T01:34:28;14.80;;;4.45;;
72115;SDS011;59991;52.140;5.428;2023-03-13T01:35:00;12.48;;;4.53;;
72115;SDS011;59991;52.140;5.428;2023-03-13T01:35:31;14.20;;;4.07;;
72115;SDS011;59991;52.140;5.428;2023-03-13T01:36:03;14.48;;;4.30;;
72115;SDS011;59991;52.140;5.428;2023-03-13T01:36:35;20.15;;;5.40;;
72115;SDS011;59991;52.140;5.428;2023-03-13T01:37:07;18.40;;;4.38;;
72115;SDS011;59991;52.140;5.428;2023-03-13T01:37:39;10.70;;;3.83;;
72115;SDS011;59991;52.140;5.428;2023-03-13T01:38:10;15.52;;;5.45;;
72115;SDS011;59991;52.140;5.428;2023-03-13T01:38:42;12.77;;;4.65;;
72115;SDS011;59991;52.140;5.428;2023-03-13T01:39:13;12.60;;;4.55;;
72115;SDS011;59991;52.140;5.428;2023-03-13T01:39:45;12.15;;;4.97;;
72115;SDS011;59991;52.140;5.428;2023-03-13T01:40:16;13.98;;;5.20;;
72115;SDS011;59991;52.140;5.428;2023-03-13T01:40:48;16.43;;;4.57;;
72115;SDS011;59991;52.140;5.428;2023-03-13T01:41:19;18.73;;;5.18;;
72115;SDS011;59991;52.140;5.428;2023-03-13T01:41:52;11.38;;;4.07;;
72115;SDS011;59991;52.140;5.428;2023-03-13T01:42:23;14.68;;;4.13;;
72115;SDS011;59991;52.140;5.428;2023-03-13T01:42:56;9.60;;;4.82;;
72115;SDS011;59991;52.140;5.428;2023-03-13T01:43:30;14.48;;;5.45;;
72115;SDS011;59991;52.140;5.428;2023-03-13T01:44:03;12.32;;;3.50;;
72115;SDS011;59991;52.140;5.428;2023-03-13T01:44:50;13.57;;;4.47;;
72115;SDS011;59991;52.140;5.428;2023-03-13T01:46:34;9.25;;;4.05;;
72115;SDS011;59991;52.140;5.428;2023-03-13T01:47:05;12.20;;;3.73;;
72115;SDS011;59991;52.140;5.428;2023-03-13T01:47:37;10.77;;;3.90;;
72115;SDS011;59991;52.140;5.428;2023-03-13T01:48:08;14.52;;;4.35;;
72115;SDS011;59991;52.140;5.428;2023-03-13T01:49:22;12.73;;;4.20;;
72115;SDS011;59991;52.140;5.428;2023-03-13T01:50:03;12.05;;;4.78;;
72115;SDS011;59991;52.140;5.428;2023-03-13T01:50:34;9.05;;;4.35;;
72115;SDS011;59991;52.140;5.428;2023-03-13T01:51:08;14.93;;;5.53;;
72115;SDS011;59991;52.140;5.428;2023-03-13T01:51:44;11.15;;;4.50;;
72115;SDS011;59991;52.140;5.428;2023-03-13T01:52:21;11.65;;;3.65;;
72115;SDS011;59991;52.140;5.428;2023-03-13T01:52:56;11.13;;;3.17;;
72115;SDS011;59991;52.140;5.428;2023-03-13T01:53:28;11.88;;;3.47;;
72115;SDS011;59991;52.140;5.428;2023-03-13T01:54:10;10.38;;;4.35;;
72115;SDS011;59991;52.140;5.428;2023-03-13T01:55:06;11.27;;;4.10;;
72115;SDS011;59991;52.140;5.428;2023-03-13T01:55:39;7.10;;;3.17;;
72115;SDS011;59991;52.140;5.428;2023-03-13T01:56:12;12.15;;;3.80;;
72115;SDS011;59991;52.140;5.428;2023-03-13T01:56:55;5.43;;;3.63;;
72115;SDS011;59991;52.140;5.428;2023-03-13T01:57:33;16.55;;;3.70;;
72115;SDS011;59991;52.140;5.428;2023-03-13T01:58:07;15.15;;;4.07;;
72115;SDS011;59991;52.140;5.428;2023-03-13T01:58:39;8.38;;;3.72;;
72115;SDS011;59991;52.140;5.428;2023-03-13T01:59:12;6.53;;;3.10;;
72115;SDS011;59991;52.140;5.428;2023-03-13T01:59:52;12.98;;;3.83;;
72115;SDS011;59991;52.140;5.428;2023-03-13T02:00:46;9.23;;;3.72;;
72115;SDS011;59991;52.140;5.428;2023-03-13T02:01:18;12.65;;;4.22;;
72115;SDS011;59991;52.140;5.428;2023-03-13T02:01:51;13.77;;;3.88;;
72115;SDS011;59991;52.140;5.428;2023-03-13T02:02:25;11.30;;;4.22;;
72115;SDS011;59991;52.140;5.428;2023-03-13T02:02:57;8.77;;;4.40;;
72115;SDS011;59991;52.140;5.428;2023-03-13T02:03:34;12.10;;;4.32;;
72115;SDS011;59991;52.140;5.428;2023-03-13T02:04:07;17.40;;;4.40;;
72115;SDS011;59991;52.140;5.428;2023-03-13T02:04:39;13.75;;;4.40;;
72115;SDS011;59991;52.140;5.428;2023-03-13T02:05:16;10.47;;;3.30;;
72115;SDS011;59991;52.140;5.428;2023-03-13T02:05:51;12.82;;;3.85;;
72115;SDS011;59991;52.140;5.428;2023-03-13T02:06:23;7.78;;;4.20;;
72115;SDS011;59991;52.140;5.428;2023-03-13T02:06:59;9.02;;;3.97;;
72115;SDS011;59991;52.140;5.428;2023-03-13T02:07:39;10.75;;;4.05;;
72115;SDS011;59991;52.140;5.428;2023-03-13T02:08:14;9.70;;;4.03;;
72115;SDS011;59991;52.140;5.428;2023-03-13T02:08:55;8.40;;;3.95;;
72115;SDS011;59991;52.140;5.428;2023-03-13T02:09:31;7.22;;;3.95;;
72115;SDS011;59991;52.140;5.428;2023-03-13T02:10:04;7.72;;;4.10;;
72115;SDS011;59991;52.140;5.428;2023-03-13T02:10:38;8.40;;;4.05;;
72115;SDS011;59991;52.140;5.428;2023-03-13T02:11:24;11.07;;;4.53;;
72115;SDS011;59991;52.140;5.428;2023-03-13T02:12:02;8.85;;;4.45;;
72115;SDS011;59991;52.140;5.428;2023-03-13T02:12:38;13.05;;;4.35;;
72115;SDS011;59991;52.140;5.428;2023-03-13T02:13:10;11.38;;;4.40;;
72115;SDS011;59991;52.140;5.428;2023-03-13T02:13:45;8.75;;;4.43;;
72115;SDS011;59991;52.140;5.428;2023-03-13T02:14:19;7.10;;;3.70;;
72115;SDS011;59991;52.140;5.428;2023-03-13T02:14:53;9.93;;;4.47;;
72115;SDS011;59991;52.140;5.428;2023-03-13T02:15:27;13.52;;;4.75;;
72115;SDS011;59991;52.140;5.428;2023-03-13T02:16:01;8.13;;;4.88;;
72115;SDS011;59991;52.140;5.428;2023-03-13T02:16:33;9.63;;;4.18;;
72115;SDS011;59991;52.140;5.428;2023-03-13T02:17:05;13.07;;;5.50;;
72115;SDS011;59991;52.140;5.428;2023-03-13T02:17:37;10.63;;;4.20;;
72115;SDS011;59991;52.140;5.428;2023-03-13T02:18:10;11.68;;;4.38;;
72115;SDS011;59991;52.140;5.428;2023-03-13T02:18:42;15.85;;;5.20;;
72115;SDS011;59991;52.140;5.428;2023-03-13T02:19:36;7.35;;;4.63;;
72115;SDS011;59991;52.140;5.428;2023-03-13T02:20:08;9.73;;;4.05;;
72115;SDS011;59991;52.140;5.428;2023-03-13T02:20:41;12.43;;;5.28;;
72115;SDS011;59991;52.140;5.428;2023-03-13T02:21:59;9.50;;;4.05;;
72115;SDS011;59991;52.140;5.428;2023-03-13T02:24:00;11.83;;;4.67;;
72115;SDS011;59991;52.140;5.428;2023-03-13T02:25:01;12.60;;;4.80;;
72115;SDS011;59991;52.140;5.428;2023-03-13T02:25:42;9.10;;;4.72;;
72115;SDS011;59991;52.140;5.428;2023-03-13T02:26:16;9.07;;;5.32;;
72115;SDS011;59991;52.140;5.428;2023-03-13T02:26:48;9.10;;;4.20;;
72115;SDS011;59991;52.140;5.428;2023-03-13T02:27:19;11.40;;;4.45;;
72115;SDS011;59991;52.140;5.428;2023-03-13T02:27:59;13.23;;;4.75;;
72115;SDS011;59991;52.140;5.428;2023-03-13T02:28:33;10.13;;;5.38;;
72115;SDS011;59991;52.140;5.428;2023-03-13T02:29:09;10.05;;;5.05;;
72115;SDS011;59991;52.140;5.428;2023-03-13T02:29:48;7.30;;;5.03;;
72115;SDS011;59991;52.140;5.428;2023-03-13T02:30:19;10.17;;;5.13;;
72115;SDS011;59991;52.140;5.428;2023-03-13T02:30:53;12.60;;;5.05;;
72115;SDS011;59991;52.140;5.428;2023-03-13T02:31:25;10.68;;;5.70;;
72115;SDS011;59991;52.140;5.428;2023-03-13T02:31:57;13.00;;;5.60;;
72115;SDS011;59991;52.140;5.428;2023-03-13T02:32:29;8.90;;;5.22;;
72115;SDS011;59991;52.140;5.428;2023-03-13T02:33:01;9.32;;;5.07;;
72115;SDS011;59991;52.140;5.428;2023-03-13T02:33:35;10.35;;;5.95;;
72115;SDS011;59991;52.140;5.428;2023-03-13T02:34:13;13.77;;;5.85;;
72115;SDS011;59991;52.140;5.428;2023-03-13T02:34:48;11.43;;;5.60;;
72115;SDS011;59991;52.140;5.428;2023-03-13T02:35:23;14.48;;;4.65;;
72115;SDS011;59991;52.140;5.428;2023-03-13T02:35:55;6.30;;;4.73;;
72115;SDS011;59991;52.140;5.428;2023-03-13T02:36:29;12.30;;;5.40;;
72115;SDS011;59991;52.140;5.428;2023-03-13T02:37:01;10.65;;;5.68;;
72115;SDS011;59991;52.140;5.428;2023-03-13T02:37:35;11.82;;;5.63;;
72115;SDS011;59991;52.140;5.428;2023-03-13T02:38:09;7.63;;;4.93;;
72115;SDS011;59991;52.140;5.428;2023-03-13T02:38:55;12.27;;;5.15;;
72115;SDS011;59991;52.140;5.428;2023-03-13T02:39:32;8.88;;;5.63;;
72115;SDS011;59991;52.140;5.428;2023-03-13T02:40:06;9.02;;;5.30;;
72115;SDS011;59991;52.140;5.428;2023-03-13T02:40:42;11.98;;;5.75;;
72115;SDS011;59991;52.140;5.428;2023-03-13T02:41:15;9.15;;;4.90;;
72115;SDS011;59991;52.140;5.428;2023-03-13T02:41:48;8.97;;;6.10;;
72115;SDS011;59991;52.140;5.428;2023-03-13T02:42:21;8.15;;;5.38;;
72115;SDS011;59991;52.140;5.428;2023-03-13T02:42:54;12.43;;;5.95;;
72115;SDS011;59991;52.140;5.428;2023-03-13T02:43:30;10.55;;;5.63;;
72115;SDS011;59991;52.140;5.428;2023-03-13T02:44:03;9.18;;;6.13;;
72115;SDS011;59991;52.140;5.428;2023-03-13T02:44:39;11.45;;;6.53;;
72115;SDS011;59991;52.140;5.428;2023-03-13T02:45:15;11.60;;;6.18;;
72115;SDS011;59991;52.140;5.428;2023-03-13T02:46:04;11.43;;;5.88;;
72115;SDS011;59991;52.140;5.428;2023-03-13T02:46:45;8.90;;;5.63;;
72115;SDS011;59991;52.140;5.428;2023-03-13T02:47:21;11.55;;;5.65;;
72115;SDS011;59991;52.140;5.428;2023-03-13T02:47:54;12.70;;;5.67;;
72115;SDS011;59991;52.140;5.428;2023-03-13T02:48:38;8.20;;;6.60;;
72115;SDS011;59991;52.140;5.428;2023-03-13T02:49:19;10.02;;;5.82;;
72115;SDS011;59991;52.140;5.428;2023-03-13T02:49:51;10.15;;;6.30;;
72115;SDS011;59991;52.140;5.428;2023-03-13T02:50:22;10.90;;;6.55;;
72115;SDS011;59991;52.140;5.428;2023-03-13T02:50:54;11.35;;;5.95;;
72115;SDS011;59991;52.140;5.428;2023-03-13T02:51:28;9.32;;;6.45;;
72115;SDS011;59991;52.140;5.428;2023-03-13T02:52:43;9.50;;;6.28;;
72115;SDS011;59991;52.140;5.428;2023-03-13T02:52:59;9.38;;;6.68;;
72115;SDS011;59991;52.140;5.428;2023-03-13T02:53:33;9.68;;;6.60;;
72115;SDS011;59991;52.140;5.428;2023-03-13T02:54:07;31.67;;;7.17;;
72115;SDS011;59991;52.140;5.428;2023-03-13T02:54:42;9.38;;;6.65;;
72115;SDS011;59991;52.140;5.428;2023-03-13T02:55:18;12.50;;;6.90;;
72115;SDS011;59991;52.140;5.428;2023-03-13T02:55:54;13.50;;;7.13;;
72115;SDS011;59991;52.140;5.428;2023-03-13T02:56:26;15.00;;;7.43;;
72115;SDS011;59991;52.140;5.428;2023-03-13T02:57:02;11.15;;;7.38;;
72115;SDS011;59991;52.140;5.428;2023-03-13T02:57:34;11.10;;;6.97;;
72115;SDS011;59991;52.140;5.428;2023-03-13T02:58:06;11.65;;;6.57;;
72115;SDS011;59991;52.140;5.428;2023-03-13T02:58:39;11.88;;;7.32;;
72115;SDS011;59991;52.140;5.428;2023-03-13T02:59:20;12.38;;;7.97;;
72115;SDS011;59991;52.140;5.428;2023-03-13T02:59:52;16.00;;;8.13;;
72115;SDS011;59991;52.140;5.428;2023-03-13T03:00:23;13.05;;;7.38;;
72115;SDS011;59991;52.140;5.428;2023-03-13T03:00:56;14.63;;;8.77;;
72115;SDS011;59991;52.140;5.428;2023-03-13T03:01:37;14.07;;;8.95;;
72115;SDS011;59991;52.140;5.428;2023-03-13T03:02:09;21.70;;;9.20;;
72115;SDS011;59991;52.140;5.428;2023-03-13T03:02:40;11.63;;;8.00;;
72115;SDS011;59991;52.140;5.428;2023-03-13T03:03:11;12.95;;;8.10;;
72115;SDS011;59991;52.140;5.428;2023-03-13T03:03:43;17.35;;;8.63;;
72115;SDS011;59991;52.140;5.428;2023-03-13T03:04:14;16.10;;;8.65;;
72115;SDS011;59991;52.140;5.428;2023-03-13T03:04:46;12.18;;;8.18;;
72115;SDS011;59991;52.140;5.428;2023-03-13T03:05:17;10.90;;;7.43;;
72115;SDS011;59991;52.140;5.428;2023-03-13T03:05:49;12.90;;;8.02;;
72115;SDS011;59991;52.140;5.428;2023-03-13T03:06:21;17.05;;;7.78;;
72115;SDS011;59991;52.140;5.428;2023-03-13T03:06:52;16.52;;;8.65;;
72115;SDS011;59991;52.140;5.428;2023-03-13T03:07:24;9.48;;;8.50;;
72115;SDS011;59991;52.140;5.428;2023-03-13T03:07:55;16.95;;;8.38;;
72115;SDS011;59991;52.140;5.428;2023-03-13T03:08:27;14.55;;;8.00;;
72115;SDS011;59991;52.140;5.428;2023-03-13T03:08:58;13.55;;;8.50;;
72115;SDS011;59991;52.140;5.428;2023-03-13T03:09:30;11.07;;;9.02;;
72115;SDS011;59991;52.140;5.428;2023-03-13T03:10:01;13.00;;;8.32;;
72115;SDS011;59991;52.140;5.428;2023-03-13T03:10:34;14.43;;;8.77;;
72115;SDS011;59991;52.140;5.428;2023-03-13T03:11:07;11.38;;;7.63;;
72115;SDS011;59991;52.140;5.428;2023-03-13T03:11:38;16.35;;;9.30;;
72115;SDS011;59991;52.140;5.428;2023-03-13T03:12:09;16.23;;;8.77;;
72115;SDS011;59991;52.140;5.428;2023-03-13T03:12:41;15.25;;;9.35;;
72115;SDS011;59991;52.140;5.428;2023-03-13T03:13:12;18.27;;;9.40;;
72115;SDS011;59991;52.140;5.428;2023-03-13T03:13:44;15.20;;;9.55;;
72115;SDS011;59991;52.140;5.428;2023-03-13T03:14:16;13.50;;;9.65;;
72115;SDS011;59991;52.140;5.428;2023-03-13T03:14:48;13.65;;;9.05;;
72115;SDS011;59991;52.140;5.428;2023-03-13T03:15:20;14.02;;;8.88;;
72115;SDS011;59991;52.140;5.428;2023-03-13T03:15:52;14.30;;;8.93;;
72115;SDS011;59991;52.140;5.428;2023-03-13T03:16:24;14.18;;;8.85;;
72115;SDS011;59991;52.140;5.428;2023-03-13T03:16:55;11.75;;;8.40;;
72115;SDS011;59991;52.140;5.428;2023-03-13T03:17:27;13.55;;;9.70;;
72115;SDS011;59991;52.140;5.428;2023-03-13T03:17:58;15.57;;;10.45;;
72115;SDS011;59991;52.140;5.428;2023-03-13T03:18:29;16.20;;;9.23;;
72115;SDS011;59991;52.140;5.428;2023-03-13T03:19:04;12.48;;;8.95;;
72115;SDS011;59991;52.140;5.428;2023-03-13T03:19:39;12.88;;;9.02;;
72115;SDS011;59991;52.140;5.428;2023-03-13T03:20:11;14.75;;;10.35;;
72115;SDS011;59991;52.140;5.428;2023-03-13T03:20:42;9.95;;;8.48;;
72115;SDS011;59991;52.140;5.428;2023-03-13T03:21:13;11.30;;;9.07;;
72115;SDS011;59991;52.140;5.428;2023-03-13T03:21:45;13.32;;;9.65;;
72115;SDS011;59991;52.140;5.428;2023-03-13T03:22:16;16.65;;;9.63;;
72115;SDS011;59991;52.140;5.428;2023-03-13T03:22:48;14.73;;;10.32;;
72115;SDS011;59991;52.140;5.428;2023-03-13T03:23:20;11.85;;;9.30;;
72115;SDS011;59991;52.140;5.428;2023-03-13T03:23:51;16.70;;;9.60;;